sensor_id;sensor_type;location;lat;lon;timestamp;P1;P2;P0
30713;PMS7003;17465;47.934;33.430;2024-01-25T00:02:13;77.00;61.50;34.75
30713;PMS7003;17465;47.934;33.430;2024-01-25T00:04:43;82.25;65.25;37.50
30713;PMS7003;17465;47.934;33.430;2024-01-25T00:07:14;86.75;67.50;42.75
30713;PMS7003;17465;47.934;33.430;2024-01-25T00:09:44;98.25;83.50;48.25
30713;PMS7003;17465;47.934;33.430;2024-01-25T00:12:14;100.50;81.50;51.00
30713;PMS7003;17465;47.934;33.430;2024-01-25T00:14:45;108.00;98.25;58.50
30713;PMS7003;17465;47.934;33.430;2024-01-25T00:17:15;118.50;110.75;67.00
30713;PMS7003;17465;47.934;33.430;2024-01-25T00:19:45;106.00;97.00;62.75
30713;PMS7003;17465;47.934;33.430;2024-01-25T00:22:15;108.25;98.00;58.50
30713;PMS7003;17465;47.934;33.430;2024-01-25T00:24:46;109.25;97.50;61.25
30713;PMS7003;17465;47.934;33.430;2024-01-25T00:27:16;95.25;77.00;50.00
30713;PMS7003;17465;47.934;33.430;2024-01-25T00:29:46;92.50;73.00;45.75
30713;PMS7003;17465;47.934;33.430;2024-01-25T00:32:16;98.25;78.75;49.00
30713;PMS7003;17465;47.934;33.430;2024-01-25T00:34:48;104.00;90.75;61.50
30713;PMS7003;17465;47.934;33.430;2024-01-25T00:37:20;99.75;83.25;47.25
30713;PMS7003;17465;47.934;33.430;2024-01-25T00:39:51;106.75;89.25;52.50
30713;PMS7003;17465;47.934;33.430;2024-01-25T00:42:23;91.00;71.50;45.75
30713;PMS7003;17465;47.934;33.430;2024-01-25T00:44:53;97.00;78.00;47.50
30713;PMS7003;17465;47.934;33.430;2024-01-25T00:47:23;66.50;55.50;31.50
30713;PMS7003;17465;47.934;33.430;2024-01-25T00:49:54;74.75;60.50;38.00
30713;PMS7003;17465;47.934;33.430;2024-01-25T00:52:25;82.50;64.75;38.25
30713;PMS7003;17465;47.934;33.430;2024-01-25T00:54:55;61.50;49.25;26.75
30713;PMS7003;17465;47.934;33.430;2024-01-25T00:57:26;67.50;56.00;30.75
30713;PMS7003;17465;47.934;33.430;2024-01-25T00:59:57;66.25;53.25;30.75
30713;PMS7003;17465;47.934;33.430;2024-01-25T01:02:34;51.25;41.25;24.75
30713;PMS7003;17465;47.934;33.430;2024-01-25T01:05:02;66.00;52.75;29.50
30713;PMS7003;17465;47.934;33.430;2024-01-25T01:07:33;59.00;48.00;26.50
30713;PMS7003;17465;47.934;33.430;2024-01-25T01:10:04;63.75;52.75;29.25
30713;PMS7003;17465;47.934;33.430;2024-01-25T01:12:35;60.50;45.25;25.50
30713;PMS7003;17465;47.934;33.430;2024-01-25T01:15:06;67.25;54.50;30.75
30713;PMS7003;17465;47.934;33.430;2024-01-25T01:17:37;56.50;46.25;23.75
30713;PMS7003;17465;47.934;33.430;2024-01-25T01:20:07;52.50;46.75;23.25
30713;PMS7003;17465;47.934;33.430;2024-01-25T01:22:38;59.50;48.25;27.25
30713;PMS7003;17465;47.934;33.430;2024-01-25T01:25:08;69.25;54.00;29.75
30713;PMS7003;17465;47.934;33.430;2024-01-25T01:27:38;62.75;51.25;29.25
30713;PMS7003;17465;47.934;33.430;2024-01-25T01:30:11;68.25;57.00;34.00
30713;PMS7003;17465;47.934;33.430;2024-01-25T01:32:43;65.50;51.50;28.50
30713;PMS7003;17465;47.934;33.430;2024-01-25T01:35:15;67.50;56.75;25.00
30713;PMS7003;17465;47.934;33.430;2024-01-25T01:37:45;70.50;56.50;30.00
30713;PMS7003;17465;47.934;33.430;2024-01-25T01:40:18;58.75;46.75;30.50
30713;PMS7003;17465;47.934;33.430;2024-01-25T01:42:48;76.50;59.75;33.25
30713;PMS7003;17465;47.934;33.430;2024-01-25T01:45:18;66.25;53.25;32.50
30713;PMS7003;17465;47.934;33.430;2024-01-25T01:47:49;64.50;49.50;30.00
30713;PMS7003;17465;47.934;33.430;2024-01-25T01:50:19;80.00;62.25;33.75
30713;PMS7003;17465;47.934;33.430;2024-01-25T01:52:50;78.50;60.50;31.00
30713;PMS7003;17465;47.934;33.430;2024-01-25T01:55:21;77.50;61.75;35.50
30713;PMS7003;17465;47.934;33.430;2024-01-25T01:57:51;86.50;66.50;38.25
30713;PMS7003;17465;47.934;33.430;2024-01-25T02:00:22;78.25;62.00;37.00
30713;PMS7003;17465;47.934;33.430;2024-01-25T02:02:57;66.25;54.25;33.00
30713;PMS7003;17465;47.934;33.430;2024-01-25T02:05:27;74.25;59.25;35.75
30713;PMS7003;17465;47.934;33.430;2024-01-25T02:07:57;70.50;57.75;31.75
30713;PMS7003;17465;47.934;33.430;2024-01-25T02:10:28;63.25;52.25;29.00
30713;PMS7003;17465;47.934;33.430;2024-01-25T02:12:58;69.00;55.75;31.25
30713;PMS7003;17465;47.934;33.430;2024-01-25T02:15:29;37.00;37.00;24.25
30713;PMS7003;17465;47.934;33.430;2024-01-25T02:17:59;53.50;45.25;22.50
30713;PMS7003;17465;47.934;33.430;2024-01-25T02:20:30;38.25;36.75;18.25
30713;PMS7003;17465;47.934;33.430;2024-01-25T02:23:00;55.75;45.25;23.00
30713;PMS7003;17465;47.934;33.430;2024-01-25T02:25:30;50.75;39.00;22.25
30713;PMS7003;17465;47.934;33.430;2024-01-25T02:28:03;53.75;44.50;21.25
30713;PMS7003;17465;47.934;33.430;2024-01-25T02:30:35;56.50;48.00;27.00
30713;PMS7003;17465;47.934;33.430;2024-01-25T02:33:05;50.50;44.50;26.50
30713;PMS7003;17465;47.934;33.430;2024-01-25T02:35:36;51.75;45.00;21.50
30713;PMS7003;17465;47.934;33.430;2024-01-25T02:38:07;61.25;48.75;26.50
30713;PMS7003;17465;47.934;33.430;2024-01-25T02:40:37;51.00;45.00;28.50
30713;PMS7003;17465;47.934;33.430;2024-01-25T02:43:07;50.25;44.00;22.75
30713;PMS7003;17465;47.934;33.430;2024-01-25T02:45:38;56.75;46.00;26.50
30713;PMS7003;17465;47.934;33.430;2024-01-25T02:48:11;59.75;48.75;24.25
30713;PMS7003;17465;47.934;33.430;2024-01-25T02:50:41;52.00;43.25;17.25
30713;PMS7003;17465;47.934;33.430;2024-01-25T02:53:12;60.75;50.00;26.75
30713;PMS7003;17465;47.934;33.430;2024-01-25T02:55:42;54.75;46.00;26.50
30713;PMS7003;17465;47.934;33.430;2024-01-25T02:58:14;51.75;44.50;27.00
30713;PMS7003;17465;47.934;33.430;2024-01-25T03:00:44;60.00;50.00;30.00
30713;PMS7003;17465;47.934;33.430;2024-01-25T03:03:14;51.00;43.75;20.50
30713;PMS7003;17465;47.934;33.430;2024-01-25T03:05:44;53.25;47.75;27.50
30713;PMS7003;17465;47.934;33.430;2024-01-25T03:08:15;61.50;48.25;27.25
30713;PMS7003;17465;47.934;33.430;2024-01-25T03:10:46;72.25;58.00;35.75
30713;PMS7003;17465;47.934;33.430;2024-01-25T03:13:16;77.00;59.75;34.25
30713;PMS7003;17465;47.934;33.430;2024-01-25T03:15:46;78.75;61.00;34.75
30713;PMS7003;17465;47.934;33.430;2024-01-25T03:18:17;79.25;63.50;35.25
30713;PMS7003;17465;47.934;33.430;2024-01-25T03:20:47;66.75;54.75;30.50
30713;PMS7003;17465;47.934;33.430;2024-01-25T03:23:18;68.50;55.75;32.75
30713;PMS7003;17465;47.934;33.430;2024-01-25T03:25:48;71.25;56.50;30.75
30713;PMS7003;17465;47.934;33.430;2024-01-25T03:28:18;66.25;51.25;27.00
30713;PMS7003;17465;47.934;33.430;2024-01-25T03:30:49;67.00;52.75;31.75
30713;PMS7003;17465;47.934;33.430;2024-01-25T03:33:19;68.50;58.50;31.25
30713;PMS7003;17465;47.934;33.430;2024-01-25T03:35:50;74.75;57.75;30.00
30713;PMS7003;17465;47.934;33.430;2024-01-25T03:38:20;55.50;42.25;23.25
30713;PMS7003;17465;47.934;33.430;2024-01-25T03:40:50;75.00;57.25;31.50
30713;PMS7003;17465;47.934;33.430;2024-01-25T03:43:20;76.50;62.25;36.75
30713;PMS7003;17465;47.934;33.430;2024-01-25T03:45:53;72.25;57.00;32.00
30713;PMS7003;17465;47.934;33.430;2024-01-25T03:48:23;57.75;48.75;26.00
30713;PMS7003;17465;47.934;33.430;2024-01-25T03:50:55;63.00;52.00;34.00
30713;PMS7003;17465;47.934;33.430;2024-01-25T03:53:25;65.75;55.50;31.25
30713;PMS7003;17465;47.934;33.430;2024-01-25T03:55:55;78.50;63.00;38.00
30713;PMS7003;17465;47.934;33.430;2024-01-25T03:58:26;72.50;58.75;32.75
30713;PMS7003;17465;47.934;33.430;2024-01-25T04:00:56;69.50;53.75;27.75
30713;PMS7003;17465;47.934;33.430;2024-01-25T04:03:27;74.50;57.00;36.00
30713;PMS7003;17465;47.934;33.430;2024-01-25T04:05:57;77.75;62.75;35.50
30713;PMS7003;17465;47.934;33.430;2024-01-25T04:08:27;78.00;57.75;33.50
30713;PMS7003;17465;47.934;33.430;2024-01-25T04:10:57;54.50;41.25;21.75
30713;PMS7003;17465;47.934;33.430;2024-01-25T04:13:28;75.50;61.25;34.25
30713;PMS7003;17465;47.934;33.430;2024-01-25T04:15:58;71.00;56.25;32.50
30713;PMS7003;17465;47.934;33.430;2024-01-25T04:18:30;41.25;37.00;20.25
30713;PMS7003;17465;47.934;33.430;2024-01-25T04:21:01;62.75;51.25;31.50
30713;PMS7003;17465;47.934;33.430;2024-01-25T04:23:31;59.75;47.25;29.75
30713;PMS7003;17465;47.934;33.430;2024-01-25T04:26:01;63.50;52.50;31.50
30713;PMS7003;17465;47.934;33.430;2024-01-25T04:28:32;61.25;47.25;27.50
30713;PMS7003;17465;47.934;33.430;2024-01-25T04:31:02;62.25;49.25;30.00
30713;PMS7003;17465;47.934;33.430;2024-01-25T04:33:33;52.50;44.50;23.50
30713;PMS7003;17465;47.934;33.430;2024-01-25T04:36:03;69.50;55.50;31.75
30713;PMS7003;17465;47.934;33.430;2024-01-25T04:38:34;48.00;41.00;18.25
30713;PMS7003;17465;47.934;33.430;2024-01-25T04:41:04;55.50;45.25;27.75
30713;PMS7003;17465;47.934;33.430;2024-01-25T04:43:35;55.75;44.25;27.00
30713;PMS7003;17465;47.934;33.430;2024-01-25T04:46:09;45.75;39.75;26.25
30713;PMS7003;17465;47.934;33.430;2024-01-25T04:48:41;55.50;47.00;26.75
30713;PMS7003;17465;47.934;33.430;2024-01-25T04:51:15;46.00;41.50;21.25
30713;PMS7003;17465;47.934;33.430;2024-01-25T04:53:49;53.00;45.00;24.75
30713;PMS7003;17465;47.934;33.430;2024-01-25T04:56:19;62.50;46.75;28.00
30713;PMS7003;17465;47.934;33.430;2024-01-25T04:58:51;47.00;42.25;22.75
30713;PMS7003;17465;47.934;33.430;2024-01-25T05:01:22;54.50;41.75;24.00
30713;PMS7003;17465;47.934;33.430;2024-01-25T05:03:52;36.25;34.75;16.00
30713;PMS7003;17465;47.934;33.430;2024-01-25T05:06:23;51.00;40.75;20.25
30713;PMS7003;17465;47.934;33.430;2024-01-25T05:08:53;36.50;34.75;16.00
30713;PMS7003;17465;47.934;33.430;2024-01-25T05:11:23;54.75;42.75;22.75
30713;PMS7003;17465;47.934;33.430;2024-01-25T05:13:53;37.50;32.00;15.00
30713;PMS7003;17465;47.934;33.430;2024-01-25T05:16:24;50.00;39.25;21.75
30713;PMS7003;17465;47.934;33.430;2024-01-25T05:18:54;50.25;43.00;22.75
30713;PMS7003;17465;47.934;33.430;2024-01-25T05:21:24;50.75;43.25;26.25
30713;PMS7003;17465;47.934;33.430;2024-01-25T05:23:55;51.75;45.00;23.75
30713;PMS7003;17465;47.934;33.430;2024-01-25T05:26:25;45.50;41.50;18.50
30713;PMS7003;17465;47.934;33.430;2024-01-25T05:28:55;56.75;46.50;27.25
30713;PMS7003;17465;47.934;33.430;2024-01-25T05:31:25;48.50;42.25;20.25
30713;PMS7003;17465;47.934;33.430;2024-01-25T05:33:56;42.25;39.50;22.75
30713;PMS7003;17465;47.934;33.430;2024-01-25T05:36:26;51.00;40.75;24.00
30713;PMS7003;17465;47.934;33.430;2024-01-25T05:38:57;32.50;32.50;24.25
30713;PMS7003;17465;47.934;33.430;2024-01-25T05:41:27;39.50;32.50;22.00
30713;PMS7003;17465;47.934;33.430;2024-01-25T05:43:57;48.25;43.25;26.25
30713;PMS7003;17465;47.934;33.430;2024-01-25T05:46:27;62.50;49.50;27.00
30713;PMS7003;17465;47.934;33.430;2024-01-25T05:48:58;53.25;46.75;23.25
30713;PMS7003;17465;47.934;33.430;2024-01-25T05:51:28;43.25;39.50;23.50
30713;PMS7003;17465;47.934;33.430;2024-01-25T05:53:59;48.25;40.25;24.25
30713;PMS7003;17465;47.934;33.430;2024-01-25T05:56:29;59.75;49.50;31.00
30713;PMS7003;17465;47.934;33.430;2024-01-25T05:58:59;61.25;46.00;25.25
30713;PMS7003;17465;47.934;33.430;2024-01-25T06:01:30;50.25;41.75;23.25
30713;PMS7003;17465;47.934;33.430;2024-01-25T06:04:00;55.75;48.25;28.00
30713;PMS7003;17465;47.934;33.430;2024-01-25T06:06:30;56.25;48.50;27.25
30713;PMS7003;17465;47.934;33.430;2024-01-25T06:09:01;61.75;48.00;27.00
30713;PMS7003;17465;47.934;33.430;2024-01-25T06:11:33;57.50;45.00;25.75
30713;PMS7003;17465;47.934;33.430;2024-01-25T06:14:04;55.75;44.25;27.50
30713;PMS7003;17465;47.934;33.430;2024-01-25T06:16:35;36.00;31.50;20.75
30713;PMS7003;17465;47.934;33.430;2024-01-25T06:19:05;46.75;41.00;24.00
30713;PMS7003;17465;47.934;33.430;2024-01-25T06:21:41;64.00;51.50;30.00
30713;PMS7003;17465;47.934;33.430;2024-01-25T06:24:07;59.75;47.25;23.50
30713;PMS7003;17465;47.934;33.430;2024-01-25T06:26:38;55.25;44.75;26.25
30713;PMS7003;17465;47.934;33.430;2024-01-25T06:29:11;59.50;46.50;27.00
30713;PMS7003;17465;47.934;33.430;2024-01-25T06:31:47;54.75;45.00;27.50
30713;PMS7003;17465;47.934;33.430;2024-01-25T06:34:34;50.00;39.75;21.75
30713;PMS7003;17465;47.934;33.430;2024-01-25T06:37:05;64.25;48.00;28.50
30713;PMS7003;17465;47.934;33.430;2024-01-25T06:39:35;48.25;41.00;19.00
30713;PMS7003;17465;47.934;33.430;2024-01-25T06:42:06;57.50;45.00;26.25
30713;PMS7003;17465;47.934;33.430;2024-01-25T06:44:36;46.25;43.50;26.25
30713;PMS7003;17465;47.934;33.430;2024-01-25T06:47:06;44.25;38.50;25.25
30713;PMS7003;17465;47.934;33.430;2024-01-25T06:49:36;49.50;43.25;27.50
30713;PMS7003;17465;47.934;33.430;2024-01-25T06:52:08;53.00;43.25;24.00
30713;PMS7003;17465;47.934;33.430;2024-01-25T06:54:39;47.25;41.50;20.25
30713;PMS7003;17465;47.934;33.430;2024-01-25T06:57:09;60.75;47.00;27.50
30713;PMS7003;17465;47.934;33.430;2024-01-25T06:59:39;62.00;49.50;25.50
30713;PMS7003;17465;47.934;33.430;2024-01-25T07:02:10;59.25;47.50;27.00
30713;PMS7003;17465;47.934;33.430;2024-01-25T07:04:40;53.00;46.75;29.00
30713;PMS7003;17465;47.934;33.430;2024-01-25T07:07:11;56.75;45.25;27.25
30713;PMS7003;17465;47.934;33.430;2024-01-25T07:09:41;53.00;44.75;27.25
30713;PMS7003;17465;47.934;33.430;2024-01-25T07:12:12;57.50;44.25;27.25
30713;PMS7003;17465;47.934;33.430;2024-01-25T07:14:42;48.25;43.75;27.25
30713;PMS7003;17465;47.934;33.430;2024-01-25T07:17:14;52.25;47.00;25.25
30713;PMS7003;17465;47.934;33.430;2024-01-25T07:19:44;48.75;38.25;23.75
30713;PMS7003;17465;47.934;33.430;2024-01-25T07:22:15;59.75;49.75;31.00
30713;PMS7003;17465;47.934;33.430;2024-01-25T07:24:48;48.75;43.75;25.25
30713;PMS7003;17465;47.934;33.430;2024-01-25T07:27:20;52.50;43.00;19.75
30713;PMS7003;17465;47.934;33.430;2024-01-25T07:29:51;62.00;48.50;27.25
30713;PMS7003;17465;47.934;33.430;2024-01-25T07:32:22;60.75;49.25;27.75
30713;PMS7003;17465;47.934;33.430;2024-01-25T07:34:52;57.50;43.50;26.00
30713;PMS7003;17465;47.934;33.430;2024-01-25T07:37:23;53.50;46.25;27.75
30713;PMS7003;17465;47.934;33.430;2024-01-25T07:39:53;53.50;45.75;28.25
30713;PMS7003;17465;47.934;33.430;2024-01-25T07:42:23;62.50;48.75;27.75
30713;PMS7003;17465;47.934;33.430;2024-01-25T07:44:54;49.25;44.25;26.75
30713;PMS7003;17465;47.934;33.430;2024-01-25T07:47:24;58.75;50.25;27.25
30713;PMS7003;17465;47.934;33.430;2024-01-25T07:49:55;55.75;44.25;27.00
30713;PMS7003;17465;47.934;33.430;2024-01-25T07:52:25;53.00;46.25;26.00
30713;PMS7003;17465;47.934;33.430;2024-01-25T07:54:59;49.25;42.75;24.50
30713;PMS7003;17465;47.934;33.430;2024-01-25T07:57:32;53.00;46.50;27.00
30713;PMS7003;17465;47.934;33.430;2024-01-25T08:00:02;60.75;47.50;27.00
30713;PMS7003;17465;47.934;33.430;2024-01-25T08:02:36;49.25;43.50;24.75
30713;PMS7003;17465;47.934;33.430;2024-01-25T08:05:06;56.25;48.50;27.00
30713;PMS7003;17465;47.934;33.430;2024-01-25T08:07:37;57.00;42.00;19.75
30713;PMS7003;17465;47.934;33.430;2024-01-25T08:10:10;66.25;53.50;31.00
30713;PMS7003;17465;47.934;33.430;2024-01-25T08:12:41;47.50;42.75;13.50
30713;PMS7003;17465;47.934;33.430;2024-01-25T08:15:13;49.25;40.25;21.50
30713;PMS7003;17465;47.934;33.430;2024-01-25T08:17:43;57.50;49.50;28.00
30713;PMS7003;17465;47.934;33.430;2024-01-25T08:20:13;61.00;47.75;27.75
30713;PMS7003;17465;47.934;33.430;2024-01-25T08:22:47;51.00;44.00;23.25
30713;PMS7003;17465;47.934;33.430;2024-01-25T08:25:18;61.75;47.50;29.25
30713;PMS7003;17465;47.934;33.430;2024-01-25T08:27:50;58.00;49.00;30.25
30713;PMS7003;17465;47.934;33.430;2024-01-25T08:30:22;67.25;53.50;30.75
30713;PMS7003;17465;47.934;33.430;2024-01-25T08:32:55;48.50;44.25;25.50
30713;PMS7003;17465;47.934;33.430;2024-01-25T08:35:44;57.25;45.75;27.00
30713;PMS7003;17465;47.934;33.430;2024-01-25T08:38:15;52.75;43.25;20.75
30713;PMS7003;17465;47.934;33.430;2024-01-25T08:40:45;74.25;58.75;32.25
30713;PMS7003;17465;47.934;33.430;2024-01-25T08:43:16;62.00;50.50;30.25
30713;PMS7003;17465;47.934;33.430;2024-01-25T08:45:46;64.25;51.75;29.25
30713;PMS7003;17465;47.934;33.430;2024-01-25T08:48:17;53.50;45.75;26.00
30713;PMS7003;17465;47.934;33.430;2024-01-25T08:50:47;55.50;46.00;27.00
30713;PMS7003;17465;47.934;33.430;2024-01-25T08:53:18;61.00;49.25;27.75
30713;PMS7003;17465;47.934;33.430;2024-01-25T08:55:49;59.00;50.00;28.75
30713;PMS7003;17465;47.934;33.430;2024-01-25T08:58:20;58.00;47.50;27.50
30713;PMS7003;17465;47.934;33.430;2024-01-25T09:00:50;51.25;44.25;25.00
30713;PMS7003;17465;47.934;33.430;2024-01-25T09:03:21;57.75;44.25;26.50
30713;PMS7003;17465;47.934;33.430;2024-01-25T09:05:51;48.75;44.00;26.00
30713;PMS7003;17465;47.934;33.430;2024-01-25T09:08:22;60.00;50.50;29.00
30713;PMS7003;17465;47.934;33.430;2024-01-25T09:10:52;59.50;47.75;29.00
30713;PMS7003;17465;47.934;33.430;2024-01-25T09:13:23;54.50;46.25;25.50
30713;PMS7003;17465;47.934;33.430;2024-01-25T09:15:53;58.50;42.75;25.75
30713;PMS7003;17465;47.934;33.430;2024-01-25T09:18:25;45.50;43.50;28.00
30713;PMS7003;17465;47.934;33.430;2024-01-25T09:20:56;74.75;60.75;32.25
30713;PMS7003;17465;47.934;33.430;2024-01-25T09:23:28;57.75;47.00;26.25
30713;PMS7003;17465;47.934;33.430;2024-01-25T09:25:58;61.50;48.00;26.25
30713;PMS7003;17465;47.934;33.430;2024-01-25T09:28:29;36.50;36.50;14.00
30713;PMS7003;17465;47.934;33.430;2024-01-25T09:31:00;64.00;49.00;29.00
30713;PMS7003;17465;47.934;33.430;2024-01-25T09:33:31;49.50;38.50;20.50
30713;PMS7003;17465;47.934;33.430;2024-01-25T09:36:03;63.75;49.75;29.00
30713;PMS7003;17465;47.934;33.430;2024-01-25T09:38:34;62.50;50.00;30.25
30713;PMS7003;17465;47.934;33.430;2024-01-25T09:41:06;45.50;39.00;19.00
30713;PMS7003;17465;47.934;33.430;2024-01-25T09:43:37;56.50;46.75;28.50
30713;PMS7003;17465;47.934;33.430;2024-01-25T09:46:11;59.75;48.25;26.50
30713;PMS7003;17465;47.934;33.430;2024-01-25T09:48:43;57.00;46.50;24.25
30713;PMS7003;17465;47.934;33.430;2024-01-25T09:51:15;57.75;48.00;24.25
30713;PMS7003;17465;47.934;33.430;2024-01-25T09:54:05;67.25;54.75;30.25
30713;PMS7003;17465;47.934;33.430;2024-01-25T09:56:36;44.25;37.75;20.50
30713;PMS7003;17465;47.934;33.430;2024-01-25T09:59:10;51.50;42.50;21.25
30713;PMS7003;17465;47.934;33.430;2024-01-25T10:01:40;57.50;44.75;24.75
30713;PMS7003;17465;47.934;33.430;2024-01-25T10:04:10;59.25;48.00;24.75
30713;PMS7003;17465;47.934;33.430;2024-01-25T10:06:41;63.75;50.00;29.00
30713;PMS7003;17465;47.934;33.430;2024-01-25T10:09:11;58.25;46.25;26.00
30713;PMS7003;17465;47.934;33.430;2024-01-25T10:11:42;64.00;49.00;25.75
30713;PMS7003;17465;47.934;33.430;2024-01-25T10:14:16;57.75;47.00;25.75
30713;PMS7003;17465;47.934;33.430;2024-01-25T10:16:47;58.50;46.25;27.00
30713;PMS7003;17465;47.934;33.430;2024-01-25T10:19:18;58.00;47.25;26.75
30713;PMS7003;17465;47.934;33.430;2024-01-25T10:21:50;53.00;46.00;25.25
30713;PMS7003;17465;47.934;33.430;2024-01-25T10:24:24;61.00;48.50;28.50
30713;PMS7003;17465;47.934;33.430;2024-01-25T10:26:54;50.50;44.25;25.25
30713;PMS7003;17465;47.934;33.430;2024-01-25T10:29:25;60.50;46.75;28.00
30713;PMS7003;17465;47.934;33.430;2024-01-25T10:31:56;62.25;46.75;27.25
30713;PMS7003;17465;47.934;33.430;2024-01-25T10:34:30;53.25;45.00;26.50
30713;PMS7003;17465;47.934;33.430;2024-01-25T10:37:02;60.00;48.00;28.25
30713;PMS7003;17465;47.934;33.430;2024-01-25T10:39:37;60.50;49.25;28.25
30713;PMS7003;17465;47.934;33.430;2024-01-25T10:42:07;60.75;51.00;32.75
30713;PMS7003;17465;47.934;33.430;2024-01-25T10:44:42;71.25;58.50;36.75
30713;PMS7003;17465;47.934;33.430;2024-01-25T10:47:10;71.00;53.00;33.75
30713;PMS7003;17465;47.934;33.430;2024-01-25T10:49:41;64.00;52.25;32.75
30713;PMS7003;17465;47.934;33.430;2024-01-25T10:52:12;59.50;47.50;30.75
30713;PMS7003;17465;47.934;33.430;2024-01-25T10:54:44;65.00;51.75;33.75
30713;PMS7003;17465;47.934;33.430;2024-01-25T10:57:15;73.00;56.00;38.00
30713;PMS7003;17465;47.934;33.430;2024-01-25T10:59:45;70.25;56.50;38.00
30713;PMS7003;17465;47.934;33.430;2024-01-25T11:02:18;75.25;60.75;41.00
30713;PMS7003;17465;47.934;33.430;2024-01-25T11:04:54;157.50;143.25;81.75
30713;PMS7003;17465;47.934;33.430;2024-01-25T11:07:25;65.75;53.50;36.75
30713;PMS7003;17465;47.934;33.430;2024-01-25T11:09:56;69.75;56.25;37.00
30713;PMS7003;17465;47.934;33.430;2024-01-25T11:12:26;75.75;60.75;43.00
30713;PMS7003;17465;47.934;33.430;2024-01-25T11:14:57;81.75;65.25;48.75
30713;PMS7003;17465;47.934;33.430;2024-01-25T11:17:27;77.00;61.50;42.25
30713;PMS7003;17465;47.934;33.430;2024-01-25T11:20:00;81.50;65.00;49.50
30713;PMS7003;17465;47.934;33.430;2024-01-25T11:22:35;81.00;65.00;45.50
30713;PMS7003;17465;47.934;33.430;2024-01-25T11:25:21;77.75;62.75;43.25
30713;PMS7003;17465;47.934;33.430;2024-01-25T11:27:51;81.75;66.25;50.25
30713;PMS7003;17465;47.934;33.430;2024-01-25T11:30:22;98.75;91.00;76.50
30713;PMS7003;17465;47.934;33.430;2024-01-25T11:32:56;93.25;80.00;66.75
30713;PMS7003;17465;47.934;33.430;2024-01-25T11:35:27;91.75;75.50;61.25
30713;PMS7003;17465;47.934;33.430;2024-01-25T11:37:58;85.75;68.75;54.00
30713;PMS7003;17465;47.934;33.430;2024-01-25T11:40:28;87.00;70.00;55.00
30713;PMS7003;17465;47.934;33.430;2024-01-25T11:43:00;94.60;79.60;63.20
30713;PMS7003;17465;47.934;33.430;2024-01-25T11:45:31;86.75;71.25;55.25
30713;PMS7003;17465;47.934;33.430;2024-01-25T11:48:22;85.50;68.00;50.50
30713;PMS7003;17465;47.934;33.430;2024-01-25T11:50:53;83.25;68.50;53.00
30713;PMS7003;17465;47.934;33.430;2024-01-25T11:53:27;85.75;68.00;52.50
30713;PMS7003;17465;47.934;33.430;2024-01-25T11:55:58;73.50;60.50;42.00
30713;PMS7003;17465;47.934;33.430;2024-01-25T11:58:28;78.50;63.25;46.50
30713;PMS7003;17465;47.934;33.430;2024-01-25T12:01:01;76.25;60.75;44.00
30713;PMS7003;17465;47.934;33.430;2024-01-25T12:03:33;73.75;61.75;43.75
30713;PMS7003;17465;47.934;33.430;2024-01-25T12:06:06;75.25;61.25;44.25
30713;PMS7003;17465;47.934;33.430;2024-01-25T12:08:37;81.25;66.50;49.75
30713;PMS7003;17465;47.934;33.430;2024-01-25T12:11:10;83.50;66.50;51.50
30713;PMS7003;17465;47.934;33.430;2024-01-25T12:13:46;85.00;68.75;56.25
30713;PMS7003;17465;47.934;33.430;2024-01-25T12:16:16;80.50;66.25;50.75
30713;PMS7003;17465;47.934;33.430;2024-01-25T12:18:48;85.75;70.00;56.00
30713;PMS7003;17465;47.934;33.430;2024-01-25T12:21:19;71.00;58.75;40.25
30713;PMS7003;17465;47.934;33.430;2024-01-25T12:23:49;72.50;60.75;42.25
30713;PMS7003;17465;47.934;33.430;2024-01-25T12:26:20;74.25;60.00;41.75
30713;PMS7003;17465;47.934;33.430;2024-01-25T12:28:51;72.25;59.00;41.00
30713;PMS7003;17465;47.934;33.430;2024-01-25T12:31:21;75.75;60.25;40.25
30713;PMS7003;17465;47.934;33.430;2024-01-25T12:33:51;36.00;28.25;10.50
30713;PMS7003;17465;47.934;33.430;2024-01-25T12:36:22;35.25;32.75;21.25
30713;PMS7003;17465;47.934;33.430;2024-01-25T12:38:53;53.00;41.50;25.25
30713;PMS7003;17465;47.934;33.430;2024-01-25T12:41:23;59.00;47.75;30.75
30713;PMS7003;17465;47.934;33.430;2024-01-25T12:43:53;50.25;44.75;31.75
30713;PMS7003;17465;47.934;33.430;2024-01-25T12:46:24;65.25;52.50;32.50
30713;PMS7003;17465;47.934;33.430;2024-01-25T12:48:56;69.00;56.00;37.25
30713;PMS7003;17465;47.934;33.430;2024-01-25T12:51:27;64.75;53.25;35.75
30713;PMS7003;17465;47.934;33.430;2024-01-25T12:53:58;45.75;41.25;28.75
30713;PMS7003;17465;47.934;33.430;2024-01-25T12:56:30;40.25;38.25;22.75
30713;PMS7003;17465;47.934;33.430;2024-01-25T12:59:00;38.00;35.50;17.75
30713;PMS7003;17465;47.934;33.430;2024-01-25T13:01:31;38.50;34.75;19.75
30713;PMS7003;17465;47.934;33.430;2024-01-25T13:04:02;37.75;30.25;17.75
30713;PMS7003;17465;47.934;33.430;2024-01-25T13:06:32;44.75;39.00;19.25
30713;PMS7003;17465;47.934;33.430;2024-01-25T13:09:03;33.50;30.00;16.75
30713;PMS7003;17465;47.934;33.430;2024-01-25T13:11:36;44.50;39.50;24.50
30713;PMS7003;17465;47.934;33.430;2024-01-25T13:14:05;39.50;38.50;21.50
30713;PMS7003;17465;47.934;33.430;2024-01-25T13:16:35;36.50;34.50;16.25
30713;PMS7003;17465;47.934;33.430;2024-01-25T13:19:06;39.25;35.00;19.25
30713;PMS7003;17465;47.934;33.430;2024-01-25T13:21:36;42.75;38.25;23.25
30713;PMS7003;17465;47.934;33.430;2024-01-25T13:24:07;46.50;37.50;17.75
30713;PMS7003;17465;47.934;33.430;2024-01-25T13:26:37;34.75;34.00;20.25
30713;PMS7003;17465;47.934;33.430;2024-01-25T13:29:07;45.00;39.50;21.00
30713;PMS7003;17465;47.934;33.430;2024-01-25T13:31:39;39.50;32.00;16.00
30713;PMS7003;17465;47.934;33.430;2024-01-25T13:34:10;33.00;29.00;15.75
30713;PMS7003;17465;47.934;33.430;2024-01-25T13:36:40;29.50;25.00;14.25
30713;PMS7003;17465;47.934;33.430;2024-01-25T13:39:11;45.00;37.25;21.75
30713;PMS7003;17465;47.934;33.430;2024-01-25T13:41:41;33.75;32.75;16.75
30713;PMS7003;17465;47.934;33.430;2024-01-25T13:44:13;39.25;38.00;20.25
30713;PMS7003;17465;47.934;33.430;2024-01-25T13:46:43;46.50;38.00;21.25
30713;PMS7003;17465;47.934;33.430;2024-01-25T13:49:15;33.75;33.75;23.75
30713;PMS7003;17465;47.934;33.430;2024-01-25T13:51:45;40.50;33.75;17.75
30713;PMS7003;17465;47.934;33.430;2024-01-25T13:54:17;37.50;35.00;18.00
30713;PMS7003;17465;47.934;33.430;2024-01-25T13:56:47;33.50;29.75;15.25